Colina, Chile
Current Conditions -  °F | °C
As of 12:00 PM on Friday 24 Oct 2014 (Local Time) from SCEL Reporting Station
Clear Clear  
Wind Chill: 84°   Ceiling: Unl
Heat Index: 84°   Visibility: 6mi
Dew Point: 46°   Wind: 8mph
Humidity: 27%   Direction: 160°SSE
Pressure: 30"   Gusts: NA
Location:  33.2°S, 70.68°W
Report Text: SCEL 241600Z 16007KT 100V210 CAVOK 29/08 Q1016 NOSIG
Loading
Personal Weather Stations






























Interactive Weather Map
Tropical Storm Tracking
New forecast layout! Learn more

10-Day Weather Forecast

Advertisements
Track Severe Weather on mobile